Time;durP1;ratioP1;P1;durP2;ratioP2;P2;SDS_P1;SDS_P2;PMS_P1;PMS_P2;Temp;Humidity;BMP_temperature;BMP_pressure;BME280_temperature;BME280_humidity;BME280_pressure;Samples;Min_cycle;Max_cycle;Signal;HPM_P1;HPM_P2
2022/04/15 00:00:27;;;;;;;5.93;5.10;;;;;;;;;;5071621;28;20241;-54
2022/04/15 00:02:52;;;;;;;7.37;4.87;;;;;;;;;;5071495;28;20191;-54
2022/04/15 00:05:37;;;;;;;5.53;4.93;;;;;;;;;;5073038;28;20229;-54
2022/04/15 00:08:05;;;;;;;6.33;4.87;;;;;;;;;;5073236;28;20199;-54
2022/04/15 00:10:31;;;;;;;6.07;5.33;;;;;;;;;;5072985;28;20678;-54
2022/04/15 00:12:57;;;;;;;7.17;5.20;;;;;;;;;;5072684;28;20279;-54
2022/04/15 00:15:23;;;;;;;10.23;5.20;;;;;;;;;;5073018;28;20253;-55
2022/04/15 00:17:50;;;;;;;6.20;5.20;;;;;;;;;;5073191;28;20204;-54
2022/04/15 00:20:16;;;;;;;6.63;4.70;;;;;;;;;;5072922;28;20195;-54
2022/04/15 00:22:41;;;;;;;6.17;4.83;;;;;;;;;;5073047;28;20633;-54
2022/04/15 00:25:10;;;;;;;6.20;4.50;;;;;;;;;;5072553;28;20285;-54
2022/04/15 00:27:36;;;;;;;7.50;5.03;;;;;;;;;;5072934;28;20199;-54
2022/04/15 00:30:02;;;;;;;9.33;5.00;;;;;;;;;;5073080;28;20195;-54
2022/04/15 00:32:28;;;;;;;8.17;4.87;;;;;;;;;;5072848;28;20222;-55
2022/04/15 00:34:54;;;;;;;13.60;5.23;;;;;;;;;;5072900;28;20207;-54
2022/04/15 00:37:20;;;;;;;7.40;4.57;;;;;;;;;;5072585;28;20242;-53
2022/04/15 00:39:46;;;;;;;8.03;4.43;;;;;;;;;;5072751;28;20677;-55
2022/04/15 00:42:13;;;;;;;10.33;4.50;;;;;;;;;;5072794;28;20191;-53
2022/04/15 00:44:39;;;;;;;8.93;5.53;;;;;;;;;;5072730;28;20209;-55
2022/04/15 00:47:08;;;;;;;9.50;4.50;;;;;;;;;;5072671;28;20199;-53
2022/04/15 00:49:35;;;;;;;9.27;5.07;;;;;;;;;;5072726;28;20214;-53
2022/04/15 00:52:01;;;;;;;5.43;4.23;;;;;;;;;;5072711;28;20553;-53
2022/04/15 00:54:29;;;;;;;6.13;4.60;;;;;;;;;;5072181;28;20204;-53
2022/04/15 00:56:56;;;;;;;5.93;4.47;;;;;;;;;;5072643;28;20188;-53
2022/04/15 00:59:24;;;;;;;7.70;4.90;;;;;;;;;;5072461;28;20195;-53
2022/04/15 01:01:50;;;;;;;9.10;5.07;;;;;;;;;;5072429;28;20670;-53
2022/04/15 01:04:18;;;;;;;12.13;10.63;;;;;;;;;;5072301;28;20198;-53
2022/04/15 01:06:45;;;;;;;5.67;4.43;;;;;;;;;;5072413;28;20227;-53
2022/04/15 01:09:12;;;;;;;5.37;4.07;;;;;;;;;;5072293;28;20245;-53
2022/04/15 01:11:42;;;;;;;7.53;4.67;;;;;;;;;;5071779;28;20534;-53
2022/04/15 01:14:09;;;;;;;5.20;4.40;;;;;;;;;;5072348;28;20342;-53
2022/04/15 01:16:36;;;;;;;7.93;4.80;;;;;;;;;;5072038;28;20291;-55
2022/04/15 01:19:02;;;;;;;7.33;4.57;;;;;;;;;;5072240;28;20207;-54
2022/04/15 01:21:31;;;;;;;8.23;4.93;;;;;;;;;;5072279;28;20204;-54
2022/04/15 01:23:59;;;;;;;8.50;4.50;;;;;;;;;;5072099;28;20211;-53
2022/04/15 01:26:25;;;;;;;5.90;4.53;;;;;;;;;;5071966;28;20569;-54
2022/04/15 01:28:51;;;;;;;5.73;4.80;;;;;;;;;;5072194;28;20689;-54
2022/04/15 01:31:17;;;;;;;7.47;4.30;;;;;;;;;;5071938;28;20199;-54
2022/04/15 01:33:43;;;;;;;11.17;4.93;;;;;;;;;;5072266;28;20195;-54
2022/04/15 01:36:10;;;;;;;5.70;4.07;;;;;;;;;;5072042;28;20191;-54
2022/04/15 01:38:36;;;;;;;7.20;4.23;;;;;;;;;;5071950;28;20282;-54
2022/04/15 01:41:04;;;;;;;4.00;3.67;;;;;;;;;;5072114;28;20648;-53
2022/04/15 01:43:30;;;;;;;8.53;4.07;;;;;;;;;;5072107;28;20206;-55
2022/04/15 01:45:56;;;;;;;6.17;4.63;;;;;;;;;;5071901;28;20252;-53
2022/04/15 01:48:21;;;;;;;5.53;4.53;;;;;;;;;;5071944;28;20200;-54
2022/04/15 01:50:48;;;;;;;4.17;3.57;;;;;;;;;;5072005;28;20193;-54
2022/04/15 01:53:14;;;;;;;6.33;3.87;;;;;;;;;;5071816;28;20203;-54
2022/04/15 01:55:39;;;;;;;4.43;3.73;;;;;;;;;;5072048;28;20192;-54
2022/04/15 01:58:07;;;;;;;4.53;3.70;;;;;;;;;;5071913;28;20773;-54
2022/04/15 02:00:33;;;;;;;4.93;3.27;;;;;;;;;;5071803;28;20204;-54
2022/04/15 02:02:59;;;;;;;3.50;3.13;;;;;;;;;;5071792;28;20206;-55
2022/04/15 02:05:25;;;;;;;3.60;3.30;;;;;;;;;;5071401;28;20220;-55
2022/04/15 02:07:51;;;;;;;4.20;3.33;;;;;;;;;;5074261;28;20258;-54
2022/04/15 02:10:17;;;;;;;3.73;3.37;;;;;;;;;;5075577;28;20256;-55
2022/04/15 02:12:43;;;;;;;3.70;3.40;;;;;;;;;;5075733;28;20196;-54
2022/04/15 02:15:10;;;;;;;3.83;3.30;;;;;;;;;;5075532;28;20196;-54
2022/04/15 02:17:36;;;;;;;4.03;3.00;;;;;;;;;;5075352;28;20203;-55
2022/04/15 02:20:03;;;;;;;4.67;3.40;;;;;;;;;;5075475;28;20291;-55
2022/04/15 02:22:29;;;;;;;5.70;3.57;;;;;;;;;;5075421;28;20226;-55
2022/04/15 02:24:55;;;;;;;4.07;2.90;;;;;;;;;;5075069;28;20246;-55
2022/04/15 02:27:21;;;;;;;6.67;3.50;;;;;;;;;;5075274;28;20204;-54
2022/04/15 02:29:47;;;;;;;3.97;3.00;;;;;;;;;;5075411;28;20666;-55
2022/04/15 02:32:14;;;;;;;3.50;3.20;;;;;;;;;;5075287;28;20264;-55
2022/04/15 02:34:40;;;;;;;3.83;3.10;;;;;;;;;;5075105;28;20199;-55
2022/04/15 02:37:06;;;;;;;6.03;3.80;;;;;;;;;;5075154;28;20275;-55
2022/04/15 02:39:32;;;;;;;4.97;3.47;;;;;;;;;;5075078;28;20199;-53
2022/04/15 02:42:00;;;;;;;3.60;3.27;;;;;;;;;;5074980;28;20226;-54
2022/04/15 02:44:26;;;;;;;3.97;3.57;;;;;;;;;;5074928;28;20203;-54
2022/04/15 02:46:54;;;;;;;5.10;3.50;;;;;;;;;;5074812;28;20299;-54
2022/04/15 02:49:21;;;;;;;4.03;3.30;;;;;;;;;;5074854;28;20225;-54
2022/04/15 02:51:47;;;;;;;5.50;3.50;;;;;;;;;;5075007;28;20682;-53
2022/04/15 02:54:13;;;;;;;3.27;2.97;;;;;;;;;;5074984;28;20207;-54
2022/04/15 02:56:39;;;;;;;3.60;3.30;;;;;;;;;;5075016;28;20207;-54
2022/04/15 02:59:05;;;;;;;5.37;3.40;;;;;;;;;;5074821;28;20234;-53
2022/04/15 03:01:31;;;;;;;3.83;3.47;;;;;;;;;;5074670;28;20234;-53
2022/04/15 03:03:57;;;;;;;4.20;3.30;;;;;;;;;;5074758;28;20222;-54
2022/04/15 03:06:24;;;;;;;4.20;3.30;;;;;;;;;;5074431;28;20301;-55
2022/04/15 03:08:50;;;;;;;4.30;3.10;;;;;;;;;;5074667;28;20250;-53
2022/04/15 03:11:16;;;;;;;5.20;3.00;;;;;;;;;;5074575;28;20203;-53
2022/04/15 03:13:42;;;;;;;4.40;3.30;;;;;;;;;;5074470;28;20674;-53
2022/04/15 03:16:08;;;;;;;3.50;3.20;;;;;;;;;;5074440;28;20199;-53
2022/04/15 03:18:34;;;;;;;3.40;3.10;;;;;;;;;;5073990;28;20199;-53
2022/04/15 03:21:00;;;;;;;6.43;3.23;;;;;;;;;;5074484;28;20257;-53
2022/04/15 03:23:28;;;;;;;3.97;3.57;;;;;;;;;;5074203;28;20192;-53
2022/04/15 03:25:54;;;;;;;3.50;3.20;;;;;;;;;;5074221;28;20243;-54
2022/04/15 03:28:20;;;;;;;4.97;3.40;;;;;;;;;;5074154;28;20198;-54
2022/04/15 03:30:46;;;;;;;5.50;3.33;;;;;;;;;;5074208;28;20257;-53
2022/04/15 03:33:12;;;;;;;3.87;3.47;;;;;;;;;;5074026;28;20237;-53
2022/04/15 03:35:38;;;;;;;5.60;3.23;;;;;;;;;;5074036;28;20874;-53
2022/04/15 03:38:04;;;;;;;4.87;3.50;;;;;;;;;;5074056;28;20195;-54
2022/04/15 03:40:31;;;;;;;7.03;4.13;;;;;;;;;;5073909;28;20207;-54
2022/04/15 03:42:57;;;;;;;4.10;3.70;;;;;;;;;;5074054;28;20203;-54
2022/04/15 03:45:24;;;;;;;4.63;4.13;;;;;;;;;;5073710;28;20219;-54
2022/04/15 03:47:50;;;;;;;6.60;5.00;;;;;;;;;;5073880;28;20195;-53
2022/04/15 03:50:17;;;;;;;5.80;5.13;;;;;;;;;;5073756;28;20218;-54
2022/04/15 03:52:46;;;;;;;7.87;5.07;;;;;;;;;;5073831;28;20195;-54
2022/04/15 03:55:12;;;;;;;5.90;5.17;;;;;;;;;;5073602;28;20626;-54
2022/04/15 03:57:40;;;;;;;7.13;5.60;;;;;;;;;;5073529;28;20252;-54
2022/04/15 04:00:07;;;;;;;9.13;6.37;;;;;;;;;;5073569;28;20199;-54
2022/04/15 04:02:33;;;;;;;7.20;6.17;;;;;;;;;;5073033;28;20204;-54
2022/04/15 04:04:59;;;;;;;6.77;6.07;;;;;;;;;;5073498;28;20724;-54
2022/04/15 04:07:25;;;;;;;6.47;5.87;;;;;;;;;;5073340;28;20204;-54
2022/04/15 04:09:51;;;;;;;7.13;6.13;;;;;;;;;;5073281;28;20200;-54
2022/04/15 04:12:17;;;;;;;6.50;5.90;;;;;;;;;;5073207;28;20207;-55
2022/04/15 04:14:44;;;;;;;8.00;6.80;;;;;;;;;;5073356;28;20199;-54
2022/04/15 04:17:10;;;;;;;12.67;8.33;;;;;;;;;;5073151;28;20199;-54
2022/04/15 04:19:36;;;;;;;7.63;6.90;;;;;;;;;;5073109;28;20199;-54
2022/04/15 04:22:03;;;;;;;8.03;7.23;;;;;;;;;;5073173;28;20575;-54
2022/04/15 04:24:29;;;;;;;8.43;6.77;;;;;;;;;;5072852;28;20232;-54
2022/04/15 04:26:55;;;;;;;8.53;6.90;;;;;;;;;;5072971;28;20277;-54
2022/04/15 04:29:20;;;;;;;9.50;7.53;;;;;;;;;;5072185;28;20227;-54
2022/04/15 04:31:48;;;;;;;8.47;6.30;;;;;;;;;;5072964;28;20598;-54
2022/04/15 04:34:14;;;;;;;9.70;7.30;;;;;;;;;;5072984;28;20203;-54
2022/04/15 04:36:40;;;;;;;7.30;6.60;;;;;;;;;;5069246;28;20199;-54
2022/04/15 04:39:08;;;;;;;7.97;7.17;;;;;;;;;;5072650;28;20272;-54
2022/04/15 04:41:34;;;;;;;8.53;7.03;;;;;;;;;;5072664;28;20195;-54
2022/04/15 04:44:00;;;;;;;9.43;7.00;;;;;;;;;;5072978;28;20562;-54
2022/04/15 04:46:26;;;;;;;8.00;7.20;;;;;;;;;;5072341;28;20230;-54
2022/04/15 04:48:53;;;;;;;10.83;7.77;;;;;;;;;;5072659;28;20611;-54
2022/04/15 04:51:19;;;;;;;7.70;7.00;;;;;;;;;;5072583;28;20214;-54
2022/04/15 04:53:45;;;;;;;8.43;7.60;;;;;;;;;;5072834;28;20203;-54
2022/04/15 04:56:11;;;;;;;10.90;8.07;;;;;;;;;;5072675;28;20199;-54
2022/04/15 04:58:37;;;;;;;7.60;6.87;;;;;;;;;;5072427;28;20265;-55
2022/04/15 05:01:03;;;;;;;8.33;6.80;;;;;;;;;;5072353;28;20231;-54
2022/04/15 05:03:29;;;;;;;7.13;6.17;;;;;;;;;;5072343;28;20207;-55
2022/04/15 05:05:56;;;;;;;7.73;6.30;;;;;;;;;;5072097;28;20231;-54
2022/04/15 05:08:22;;;;;;;7.90;6.40;;;;;;;;;;5072279;28;20207;-55
2022/04/15 05:10:48;;;;;;;7.87;6.23;;;;;;;;;;5072470;28;20191;-53
2022/04/15 05:13:14;;;;;;;6.57;5.67;;;;;;;;;;5072236;28;20752;-53
2022/04/15 05:15:40;;;;;;;8.30;6.63;;;;;;;;;;5072152;28;20195;-53
2022/04/15 05:18:06;;;;;;;8.90;6.50;;;;;;;;;;5070289;28;20555;-53
2022/04/15 05:20:32;;;;;;;8.07;6.60;;;;;;;;;;5068493;28;20352;-53
2022/04/15 05:23:00;;;;;;;8.93;5.87;;;;;;;;;;5071775;28;20286;-53
2022/04/15 05:25:26;;;;;;;6.13;5.30;;;;;;;;;;5071165;28;20235;-53
2022/04/15 05:27:52;;;;;;;6.50;5.90;;;;;;;;;;5071673;28;20199;-54
2022/04/15 05:30:18;;;;;;;6.23;5.63;;;;;;;;;;5071902;28;20673;-55
2022/04/15 05:32:44;;;;;;;7.23;6.13;;;;;;;;;;5072199;28;20658;-55
2022/04/15 05:35:10;;;;;;;6.10;5.57;;;;;;;;;;5072271;28;20211;-54
2022/04/15 05:37:36;;;;;;;7.20;6.23;;;;;;;;;;5071971;28;20565;-55
2022/04/15 05:40:04;;;;;;;7.70;6.73;;;;;;;;;;5072213;28;20209;-54
2022/04/15 05:42:30;;;;;;;7.63;6.83;;;;;;;;;;5075576;28;20204;-54
2022/04/15 05:44:56;;;;;;;7.13;6.30;;;;;;;;;;5074740;28;20203;-54
2022/04/15 05:47:22;;;;;;;8.67;7.80;;;;;;;;;;5075903;28;20273;-54
2022/04/15 05:49:48;;;;;;;9.63;8.00;;;;;;;;;;5076154;28;20564;-54
2022/04/15 05:52:14;;;;;;;9.53;8.63;;;;;;;;;;5076140;28;20733;-54
2022/04/15 05:54:40;;;;;;;9.17;8.30;;;;;;;;;;5076087;28;20200;-54
2022/04/15 05:57:07;;;;;;;11.53;9.70;;;;;;;;;;5076038;28;20192;-54
2022/04/15 05:59:33;;;;;;;11.87;10.63;;;;;;;;;;5075776;28;20203;-54
2022/04/15 06:01:59;;;;;;;12.40;11.20;;;;;;;;;;5062065;28;20203;-54
2022/04/15 06:04:25;;;;;;;12.47;10.53;;;;;;;;;;5055343;28;20211;-55
2022/04/15 06:06:51;;;;;;;12.63;10.43;;;;;;;;;;5069182;28;20617;-54
2022/04/15 06:09:17;;;;;;;11.00;9.93;;;;;;;;;;5075316;28;20203;-54
2022/04/15 06:11:43;;;;;;;14.70;11.00;;;;;;;;;;5072125;28;20560;-54
2022/04/15 06:14:11;;;;;;;12.53;9.27;;;;;;;;;;5075422;28;20199;-54
2022/04/15 06:16:42;;;;;;;11.43;10.27;;;;;;;;;;5068147;28;20282;-54
2022/04/15 06:19:08;;;;;;;10.27;9.07;;;;;;;;;;5063989;28;20199;-55
2022/04/15 06:21:34;;;;;;;9.23;8.20;;;;;;;;;;5062949;28;20246;-54
2022/04/15 06:24:00;;;;;;;10.47;8.87;;;;;;;;;;5056644;28;20251;-54
2022/04/15 06:26:26;;;;;;;9.30;7.93;;;;;;;;;;5054942;28;20224;-54
2022/04/15 06:28:52;;;;;;;8.70;7.80;;;;;;;;;;5055090;28;20199;-54
2022/04/15 06:31:21;;;;;;;11.03;8.97;;;;;;;;;;5061076;28;20195;-53
2022/04/15 06:33:47;;;;;;;11.17;9.27;;;;;;;;;;5075303;28;20320;-55
2022/04/15 06:36:13;;;;;;;10.80;8.33;;;;;;;;;;5075166;28;20286;-55
2022/04/15 06:38:39;;;;;;;9.43;8.43;;;;;;;;;;5075181;28;20725;-54
2022/04/15 06:41:05;;;;;;;12.17;8.90;;;;;;;;;;5074927;28;20278;-54
2022/04/15 06:43:31;;;;;;;12.27;9.33;;;;;;;;;;5074858;28;20788;-55
2022/04/15 06:45:58;;;;;;;10.40;8.90;;;;;;;;;;5075045;28;20223;-54
2022/04/15 06:48:25;;;;;;;11.43;9.73;;;;;;;;;;5074758;28;20748;-55
2022/04/15 06:50:51;;;;;;;13.87;10.00;;;;;;;;;;5074996;28;20202;-55
2022/04/15 06:53:17;;;;;;;10.60;9.50;;;;;;;;;;5074128;28;20206;-55
2022/04/15 06:55:43;;;;;;;13.00;9.93;;;;;;;;;;5074514;28;20598;-53
2022/04/15 06:58:09;;;;;;;13.23;9.73;;;;;;;;;;5071278;28;20191;-55
2022/04/15 07:00:36;;;;;;;12.47;10.37;;;;;;;;;;5074382;28;20206;-54
2022/04/15 07:03:03;;;;;;;11.37;9.63;;;;;;;;;;5074713;28;20678;-53
2022/04/15 07:05:30;;;;;;;13.07;10.90;;;;;;;;;;5074424;28;20719;-54
2022/04/15 07:07:56;;;;;;;13.27;9.83;;;;;;;;;;5074500;28;20265;-55
2022/04/15 07:10:23;;;;;;;12.90;9.73;;;;;;;;;;5074222;28;20663;-55
2022/04/15 07:12:49;;;;;;;12.17;9.63;;;;;;;;;;5074496;28;20202;-54
2022/04/15 07:15:15;;;;;;;11.70;9.57;;;;;;;;;;5074491;28;20265;-55
2022/04/15 07:17:41;;;;;;;11.97;9.10;;;;;;;;;;5074538;28;20196;-53
2022/04/15 07:20:08;;;;;;;11.43;9.47;;;;;;;;;;5074144;28;20198;-53
2022/04/15 07:22:35;;;;;;;10.50;8.60;;;;;;;;;;5074065;28;20199;-51
2022/04/15 07:25:01;;;;;;;10.97;9.40;;;;;;;;;;5074142;28;20346;-56
2022/04/15 07:27:27;;;;;;;11.87;9.60;;;;;;;;;;5074088;28;20318;-55
2022/04/15 07:29:53;;;;;;;14.80;10.33;;;;;;;;;;5074184;28;20282;-54
2022/04/15 07:32:21;;;;;;;15.70;10.70;;;;;;;;;;5074171;28;20249;-54
2022/04/15 07:34:47;;;;;;;11.20;10.00;;;;;;;;;;5074076;28;20230;-54
2022/04/15 07:37:13;;;;;;;13.80;9.97;;;;;;;;;;5074051;28;20190;-53
2022/04/15 07:39:40;;;;;;;13.27;9.73;;;;;;;;;;5073891;28;20220;-53
2022/04/15 07:42:07;;;;;;;12.07;9.70;;;;;;;;;;5073902;28;20275;-54
2022/04/15 07:44:33;;;;;;;12.60;9.60;;;;;;;;;;5073746;28;20187;-54
2022/04/15 07:46:59;;;;;;;11.13;9.57;;;;;;;;;;5074026;28;20230;-54
2022/04/15 07:49:25;;;;;;;11.80;9.00;;;;;;;;;;5073790;28;20203;-54
2022/04/15 07:51:51;;;;;;;11.90;9.07;;;;;;;;;;5073843;28;20207;-54
2022/04/15 07:54:17;;;;;;;10.90;9.43;;;;;;;;;;5073767;28;20202;-54
2022/04/15 07:56:44;;;;;;;11.30;9.33;;;;;;;;;;5073788;28;20200;-54
2022/04/15 07:59:10;;;;;;;11.17;8.03;;;;;;;;;;5073458;28;20652;-53
2022/04/15 08:01:38;;;;;;;10.23;8.40;;;;;;;;;;5073326;28;20195;-54
2022/04/15 08:04:05;;;;;;;10.90;7.73;;;;;;;;;;5072693;28;20203;-54
2022/04/15 08:06:31;;;;;;;9.83;7.70;;;;;;;;;;5073181;28;20234;-53
2022/04/15 08:08:58;;;;;;;10.43;8.30;;;;;;;;;;5073296;28;20200;-53
2022/04/15 08:11:25;;;;;;;10.00;8.33;;;;;;;;;;5072875;28;20203;-54
2022/04/15 08:13:52;;;;;;;10.33;8.40;;;;;;;;;;5073242;28;20213;-53
2022/04/15 08:16:18;;;;;;;9.33;7.93;;;;;;;;;;5072952;28;20278;-53
2022/04/15 08:18:44;;;;;;;9.17;6.90;;;;;;;;;;5072927;28;20538;-55
2022/04/15 08:21:11;;;;;;;9.50;7.17;;;;;;;;;;5073039;28;20611;-54
2022/04/15 08:23:36;;;;;;;9.10;7.40;;;;;;;;;;5072877;28;20305;-54
2022/04/15 08:26:03;;;;;;;12.57;7.80;;;;;;;;;;5072680;28;20235;-54
2022/04/15 08:28:28;;;;;;;9.20;7.80;;;;;;;;;;5072898;28;20265;-54
2022/04/15 08:30:56;;;;;;;10.97;8.10;;;;;;;;;;5072899;28;20196;-54
2022/04/15 08:33:23;;;;;;;9.73;7.77;;;;;;;;;;5072882;28;20203;-54
2022/04/15 08:35:50;;;;;;;10.33;7.33;;;;;;;;;;5072851;28;20650;-54
2022/04/15 08:38:16;;;;;;;8.53;6.87;;;;;;;;;;5072803;28;20693;-53
2022/04/15 08:40:43;;;;;;;13.23;8.30;;;;;;;;;;5072753;28;20794;-53
2022/04/15 08:43:10;;;;;;;10.50;7.97;;;;;;;;;;5072739;28;20715;-54
2022/04/15 08:45:38;;;;;;;9.27;6.97;;;;;;;;;;5071803;28;20236;-54
2022/04/15 08:48:06;;;;;;;10.63;7.30;;;;;;;;;;5070770;28;20206;-54
2022/04/15 08:50:32;;;;;;;10.80;7.63;;;;;;;;;;5072373;28;20203;-53
2022/04/15 08:52:59;;;;;;;13.33;7.63;;;;;;;;;;5072657;28;20214;-53
2022/04/15 08:55:27;;;;;;;12.00;8.70;;;;;;;;;;5072584;28;20235;-54
2022/04/15 08:57:53;;;;;;;11.37;7.70;;;;;;;;;;5072802;28;20278;-54
2022/04/15 09:00:20;;;;;;;10.30;7.30;;;;;;;;;;5072597;28;20298;-54
2022/04/15 09:02:47;;;;;;;9.30;7.23;;;;;;;;;;5072534;28;20233;-53
2022/04/15 09:05:18;;;;;;;9.60;8.07;;;;;;;;;;5072592;28;20287;-55
2022/04/15 09:07:45;;;;;;;12.23;7.90;;;;;;;;;;5072501;28;20234;-53
2022/04/15 09:10:12;;;;;;;10.37;8.30;;;;;;;;;;5072441;28;20201;-55
2022/04/15 09:12:39;;;;;;;12.57;8.47;;;;;;;;;;5072377;28;20536;-54
2022/04/15 09:15:12;;;;;;;12.77;8.87;;;;;;;;;;5072285;28;20196;-53
2022/04/15 09:17:38;;;;;;;10.97;8.47;;;;;;;;;;5072194;28;20282;-54
2022/04/15 09:20:05;;;;;;;11.53;8.93;;;;;;;;;;5072483;28;20223;-56
2022/04/15 09:22:33;;;;;;;10.10;8.03;;;;;;;;;;5072312;28;20202;-54
2022/04/15 09:24:59;;;;;;;13.60;8.20;;;;;;;;;;5071958;28;20335;-55
2022/04/15 09:27:26;;;;;;;9.77;7.63;;;;;;;;;;5071540;28;20242;-54
2022/04/15 09:29:54;;;;;;;8.93;7.37;;;;;;;;;;5071997;28;20560;-53
2022/04/15 09:32:22;;;;;;;12.87;8.67;;;;;;;;;;5072268;28;20195;-54
2022/04/15 09:34:54;;;;;;;11.03;7.93;;;;;;;;;;5072240;28;20859;-53
2022/04/15 09:37:20;;;;;;;10.50;7.63;;;;;;;;;;5072051;28;20192;-54
2022/04/15 09:40:01;;;;;;;14.20;7.87;;;;;;;;;;5071954;28;20236;-50
2022/04/15 09:42:29;;;;;;;9.70;7.70;;;;;;;;;;5071906;28;20200;-50
2022/04/15 09:44:59;;;;;;;12.23;9.23;;;;;;;;;;5071850;28;20282;-49
2022/04/15 09:47:27;;;;;;;12.63;9.03;;;;;;;;;;5071525;28;20597;-51
2022/04/15 09:49:53;;;;;;;13.57;9.63;;;;;;;;;;5071936;28;20286;-51
2022/04/15 09:52:24;;;;;;;14.40;9.80;;;;;;;;;;5071423;28;20199;-51
2022/04/15 09:54:52;;;;;;;11.77;9.20;;;;;;;;;;5071340;28;20195;-50
2022/04/15 09:57:18;;;;;;;16.17;9.90;;;;;;;;;;5071229;28;20208;-51
2022/04/15 09:59:47;;;;;;;12.50;10.07;;;;;;;;;;5067913;28;20199;-50
2022/04/15 10:02:14;;;;;;;17.20;10.30;;;;;;;;;;5071597;28;20204;-51
2022/04/15 10:04:42;;;;;;;14.17;9.10;;;;;;;;;;5071242;28;20274;-51
2022/04/15 10:07:08;;;;;;;14.57;9.40;;;;;;;;;;5071686;28;20227;-51
2022/04/15 10:09:35;;;;;;;11.77;9.17;;;;;;;;;;5071643;28;20290;-50
2022/04/15 10:12:02;;;;;;;15.37;11.97;;;;;;;;;;5071717;28;20204;-51
2022/04/15 10:14:28;;;;;;;18.17;11.13;;;;;;;;;;5071404;28;20203;-50
2022/04/15 10:16:58;;;;;;;13.43;9.67;;;;;;;;;;5071542;28;20259;-50
2022/04/15 10:19:25;;;;;;;14.40;10.20;;;;;;;;;;5071524;28;20204;-51
2022/04/15 10:21:52;;;;;;;11.70;9.40;;;;;;;;;;5071486;28;20791;-50
2022/04/15 10:24:18;;;;;;;15.57;10.47;;;;;;;;;;5071136;28;20267;-50
2022/04/15 10:26:46;;;;;;;13.63;9.13;;;;;;;;;;5071310;28;20226;-51
2022/04/15 10:29:12;;;;;;;11.27;8.97;;;;;;;;;;5074376;28;20195;-51
2022/04/15 10:31:39;;;;;;;12.27;8.80;;;;;;;;;;5074987;28;20200;-50
2022/04/15 10:34:10;;;;;;;13.47;9.90;;;;;;;;;;5075118;28;20200;-50
2022/04/15 10:36:37;;;;;;;13.30;9.77;;;;;;;;;;5074756;28;20210;-50
2022/04/15 10:39:11;;;;;;;12.70;10.33;;;;;;;;;;5074957;28;20209;-51
2022/04/15 10:41:50;;;;;;;12.60;9.67;;;;;;;;;;5074770;28;20252;-51
2022/04/15 10:44:24;;;;;;;14.03;10.80;;;;;;;;;;5074977;28;20203;-52
2022/04/15 10:46:50;;;;;;;15.17;10.03;;;;;;;;;;5074974;28;20245;-50
2022/04/15 10:49:22;;;;;;;14.33;10.60;;;;;;;;;;5074915;28;20200;-51
2022/04/15 10:51:51;;;;;;;13.93;9.43;;;;;;;;;;5074795;28;20662;-52
2022/04/15 10:54:40;;;;;;;21.40;18.47;;;;;;;;;;5074893;28;20781;-50
2022/04/15 10:57:09;;;;;;;16.90;9.80;;;;;;;;;;5074802;28;20222;-53
2022/04/15 11:02:22;;;;;;;13.83;9.90;;;;;;;;;;5074487;28;20195;-52
2022/04/15 11:04:49;;;;;;;12.73;9.30;;;;;;;;;;5074675;28;20211;-50
2022/04/15 11:07:17;;;;;;;15.63;9.50;;;;;;;;;;5074440;28;20281;-51
2022/04/15 11:09:43;;;;;;;14.37;8.77;;;;;;;;;;5074385;28;20269;-51
2022/04/15 11:12:11;;;;;;;14.30;10.03;;;;;;;;;;5074495;28;20194;-51
2022/04/15 11:14:38;;;;;;;14.43;9.97;;;;;;;;;;5074136;28;20729;-51
2022/04/15 11:17:09;;;;;;;11.93;9.40;;;;;;;;;;5074226;28;20191;-51
2022/04/15 11:19:36;;;;;;;12.80;8.77;;;;;;;;;;5074308;28;20203;-51
2022/04/15 11:22:04;;;;;;;12.07;9.30;;;;;;;;;;5074458;28;20602;-51
2022/04/15 11:24:32;;;;;;;11.03;8.90;;;;;;;;;;5073960;28;20607;-51
2022/04/15 11:27:03;;;;;;;10.13;9.07;;;;;;;;;;5074151;28;20273;-52
2022/04/15 11:29:29;;;;;;;11.97;9.97;;;;;;;;;;5073712;28;20200;-52
2022/04/15 11:31:58;;;;;;;11.37;10.03;;;;;;;;;;5074106;28;20203;-51
2022/04/15 11:34:24;;;;;;;12.23;9.93;;;;;;;;;;5073767;28;20198;-51
2022/04/15 11:36:53;;;;;;;13.13;10.50;;;;;;;;;;5074221;28;20196;-51
2022/04/15 11:39:21;;;;;;;13.17;11.57;;;;;;;;;;5073744;28;20196;-52
2022/04/15 11:41:52;;;;;;;14.77;12.90;;;;;;;;;;5073976;28;20208;-52
2022/04/15 11:44:19;;;;;;;13.37;11.80;;;;;;;;;;5073938;28;20669;-50
2022/04/15 11:46:46;;;;;;;13.40;11.53;;;;;;;;;;5073869;28;20263;-51
2022/04/15 11:49:12;;;;;;;13.67;12.20;;;;;;;;;;5073996;28;20537;-52
2022/04/15 11:51:38;;;;;;;14.07;12.33;;;;;;;;;;5071517;28;20202;-52
2022/04/15 11:54:04;;;;;;;15.63;13.17;;;;;;;;;;5073813;28;20274;-51
2022/04/15 11:56:34;;;;;;;15.17;13.37;;;;;;;;;;5073686;28;20596;-51
2022/04/15 11:59:00;;;;;;;17.63;15.10;;;;;;;;;;5073737;28;20241;-52
2022/04/15 12:01:27;;;;;;;16.90;15.03;;;;;;;;;;5073664;28;20207;-52
2022/04/15 12:03:53;;;;;;;13.77;11.33;;;;;;;;;;5073595;28;20218;-51
2022/04/15 12:06:19;;;;;;;14.93;12.07;;;;;;;;;;5073572;28;20224;-51
2022/04/15 12:08:46;;;;;;;12.50;11.20;;;;;;;;;;5073523;28;20206;-51
2022/04/15 12:11:13;;;;;;;14.07;12.43;;;;;;;;;;5073594;28;20195;-52
2022/04/15 12:13:40;;;;;;;13.10;11.70;;;;;;;;;;5073334;28;20207;-52
2022/04/15 12:16:06;;;;;;;17.37;12.83;;;;;;;;;;5072963;28;20595;-52
2022/04/15 12:18:33;;;;;;;16.37;12.90;;;;;;;;;;5073075;28;20207;-51
2022/04/15 12:20:59;;;;;;;16.00;13.50;;;;;;;;;;5073294;28;20192;-51
2022/04/15 12:23:26;;;;;;;14.47;12.97;;;;;;;;;;5072851;28;20200;-52
2022/04/15 12:26:09;;;;;;;13.27;11.67;;;;;;;;;;5072695;28;20250;-51
2022/04/15 12:31:31;;;;;;;10.67;9.57;;;;;;;;;;5072797;28;20292;-51
2022/04/15 12:33:58;;;;;;;13.73;12.37;;;;;;;;;;5072851;28;20256;-50
2022/04/15 12:36:24;;;;;;;13.43;10.90;;;;;;;;;;5063408;28;20189;-50
2022/04/15 12:39:03;;;;;;;11.43;10.23;;;;;;;;;;5063739;28;20700;-52
2022/04/15 12:41:40;;;;;;;13.40;10.67;;;;;;;;;;5061589;28;20710;-51
2022/04/15 12:44:16;;;;;;;12.67;10.50;;;;;;;;;;5057865;28;20279;-51
2022/04/15 12:46:45;;;;;;;16.03;11.70;;;;;;;;;;5052352;28;20216;-52
2022/04/15 12:49:26;;;;;;;15.77;12.17;;;;;;;;;;5050771;28;20918;-50
2022/04/15 12:51:52;;;;;;;13.90;12.40;;;;;;;;;;5051913;28;20204;-51
2022/04/15 12:54:18;;;;;;;13.33;11.93;;;;;;;;;;5052484;28;20192;-52
2022/04/15 12:56:54;;;;;;;12.67;11.37;;;;;;;;;;5055374;28;20206;-50
2022/04/15 12:59:20;;;;;;;12.57;11.37;;;;;;;;;;5072139;28;20218;-52
2022/04/15 13:01:47;;;;;;;14.50;12.17;;;;;;;;;;5072252;28;20195;-52
2022/04/15 13:04:15;;;;;;;17.43;12.33;;;;;;;;;;5072296;28;20572;-50
2022/04/15 13:06:41;;;;;;;18.57;13.80;;;;;;;;;;5071969;28;20254;-51
2022/04/15 13:09:07;;;;;;;17.13;13.53;;;;;;;;;;5072145;28;20195;-52
2022/04/15 13:11:33;;;;;;;17.10;13.80;;;;;;;;;;5072027;28;20649;-51
2022/04/15 13:13:59;;;;;;;16.93;13.57;;;;;;;;;;5072047;28;20223;-45
2022/04/15 13:16:25;;;;;;;14.93;13.33;;;;;;;;;;5072158;28;20246;-51
2022/04/15 13:18:54;;;;;;;16.40;12.93;;;;;;;;;;5053054;28;20340;-50
2022/04/15 13:21:20;;;;;;;12.47;11.10;;;;;;;;;;5051819;28;20212;-50
2022/04/15 13:23:47;;;;;;;18.63;16.27;;;;;;;;;;5051839;28;20220;-51
2022/04/15 13:26:13;;;;;;;15.70;10.63;;;;;;;;;;5052124;28;20208;-50
2022/04/15 13:28:41;;;;;;;18.00;11.57;;;;;;;;;;5051894;28;20957;-51
2022/04/15 13:31:08;;;;;;;14.53;12.60;;;;;;;;;;5052215;28;20216;-51
2022/04/15 13:33:34;;;;;;;14.37;11.63;;;;;;;;;;5051945;28;20200;-50
2022/04/15 13:36:02;;;;;;;14.03;11.23;;;;;;;;;;5052363;28;20210;-53
2022/04/15 13:38:28;;;;;;;13.50;11.40;;;;;;;;;;5051840;28;20226;-51
2022/04/15 13:40:54;;;;;;;13.57;11.30;;;;;;;;;;5055101;28;20284;-52
2022/04/15 13:43:20;;;;;;;12.17;10.87;;;;;;;;;;5062732;28;20191;-50
2022/04/15 13:45:46;;;;;;;13.00;11.20;;;;;;;;;;5059418;28;20199;-50
2022/04/15 13:48:12;;;;;;;13.17;10.67;;;;;;;;;;5061899;28;20615;-51
2022/04/15 13:50:38;;;;;;;12.60;11.13;;;;;;;;;;5061615;28;20255;-50
2022/04/15 13:58:35;;;;;;;11.10;9.73;;;;;;;;;;5062018;28;20203;-51
2022/04/15 14:01:01;;;;;;;10.17;8.77;;;;;;;;;;5060607;28;20615;-51
2022/04/15 14:03:27;;;;;;;10.37;8.23;;;;;;;;;;5056728;28;20555;-53
2022/04/15 14:05:54;;;;;;;9.63;8.23;;;;;;;;;;5060764;28;20257;-50
2022/04/15 14:08:21;;;;;;;10.07;8.17;;;;;;;;;;5060756;28;20594;-51
2022/04/15 14:10:47;;;;;;;9.67;8.20;;;;;;;;;;5055566;28;20232;-51
2022/04/15 14:13:15;;;;;;;11.90;8.90;;;;;;;;;;5055698;28;20219;-52
2022/04/15 14:15:41;;;;;;;11.13;9.07;;;;;;;;;;5055308;28;20208;-51
2022/04/15 14:18:08;;;;;;;12.13;8.70;;;;;;;;;;5055367;28;20658;-52
2022/04/15 14:20:34;;;;;;;11.53;8.63;;;;;;;;;;5055197;28;20234;-51
2022/04/15 14:23:00;;;;;;;10.33;8.77;;;;;;;;;;5055636;28;20261;-50
2022/04/15 14:25:28;;;;;;;9.53;8.60;;;;;;;;;;5055086;28;20668;-51
2022/04/15 14:27:54;;;;;;;10.67;9.30;;;;;;;;;;5055353;28;20255;-51
2022/04/15 14:30:20;;;;;;;10.97;9.77;;;;;;;;;;5055392;28;20670;-50
2022/04/15 14:32:46;;;;;;;11.80;9.43;;;;;;;;;;5051467;28;20673;-52
2022/04/15 14:35:15;;;;;;;9.77;8.73;;;;;;;;;;5055189;28;20204;-49
2022/04/15 14:37:42;;;;;;;9.10;8.13;;;;;;;;;;5055336;28;20196;-52
2022/04/15 14:40:08;;;;;;;11.53;8.57;;;;;;;;;;5052668;28;20233;-51
2022/04/15 14:42:37;;;;;;;11.93;10.70;;;;;;;;;;5054714;28;20197;-53